This is the latest recevied weather packets stored in our database for station/object KK4MOR. If no packets are shown the sender has not sent any weather packets the latest 10 day(s).
| Time | Temp. | Humidity | Pressure | Rain* | Wind** | Luminosity | Snow |
|---|---|---|---|---|---|---|---|
| 1777526107 | 14.44° C | 84% | 1011.5 hPa | 0 mm | - | - | - |
| 1777525203 | 14.44° C | 84% | 1011.2 hPa | 0 mm | - | - | - |
| 1777524361 | 14.44° C | 83% | 1011.3 hPa | 0 mm | - | - | - |
| 1777523467 | 15° C | 83% | 1011.2 hPa | 0 mm | - | - | - |
| 1777522550 | 15° C | 83% | 1011.7 hPa | 0 mm | - | - | - |
| 1777521661 | 15° C | 85% | 1011.8 hPa | 0 mm | - | - | - |
| 1777520741 | 13.89° C | 90% | 1012.1 hPa | 0 mm | - | - | - |
| 1777519837 | 13.33° C | 96% | 1011.7 hPa | 0 mm | - | - | - |
| 1777518932 | 13.33° C | 95% | 1011.7 hPa | 0 mm | - | - | - |
| 1777518029 | 13.33° C | 95% | 1011.7 hPa | 0 mm | - | - | - |
| 1777517123 | 13.33° C | 94% | 1011.5 hPa | 0 mm | - | - | - |
| 1777516219 | 13.33° C | 93% | 1011.4 hPa | 0 mm | - | - | - |
| 1777515314 | 13.33° C | 92% | 1011.6 hPa | 0 mm | - | - | - |
| 1777514422 | 13.89° C | 91% | 1011.3 hPa | 0 mm | - | - | - |
| 1777513506 | 14.44° C | 90% | 1011.4 hPa | 0 mm | - | - | - |
| 1777512602 | 15° C | 89% | 1011.1 hPa | 0 mm | - | - | - |
| 1777511775 | 15° C | 88% | 1010.9 hPa | 0 mm | - | - | - |
| 1777510860 | 15.56° C | 86% | 1010.6 hPa | 0 mm | - | - | - |
| 1777509949 | 16.11° C | 85% | 1010.5 hPa | 0 mm | - | - | - |
| 1777509048 | 16.11° C | 84% | 1010.3 hPa | 0 mm | - | - | - |
| 1777508147 | 16.67° C | 84% | 1010.1 hPa | 0 mm | - | - | - |
| 1777507255 | 17.22° C | 84% | 1010.2 hPa | 0 mm | - | - | - |
| 1777506345 | 17.22° C | 84% | 1010 hPa | 0 mm | - | - | - |
| 1777505450 | 17.78° C | 84% | 1009.9 hPa | 0 mm | - | - | - |
| 1777504543 | 17.78° C | 83% | 1009.8 hPa | 0 mm | - | - | - |
* Rain latest hour (hover to see other rain measurements)
** Current wind speed in m/s (hover to see current wind gust speed)